createdAt,value
2018-03-03T00:00:44.630Z,944.38
2018-03-03T00:01:44.568Z,944.38
2018-03-03T00:02:44.502Z,944.41
2018-03-03T00:03:44.442Z,944.38
2018-03-03T00:04:44.389Z,944.39
2018-03-03T00:05:44.316Z,944.37
2018-03-03T00:06:44.258Z,944.38
2018-03-03T00:07:44.191Z,944.33
2018-03-03T00:08:44.127Z,944.29
2018-03-03T00:09:44.065Z,944.30
2018-03-03T00:10:44.002Z,944.28
2018-03-03T00:11:43.941Z,944.27
2018-03-03T00:12:43.879Z,944.28
2018-03-03T00:13:43.814Z,944.32
2018-03-03T00:14:43.751Z,944.29
2018-03-03T00:15:43.692Z,944.33
2018-03-03T00:16:43.627Z,944.29
2018-03-03T00:17:43.564Z,944.31
2018-03-03T00:18:43.501Z,944.29
2018-03-03T00:19:43.437Z,944.28
2018-03-03T00:20:43.387Z,944.32
2018-03-03T00:21:43.314Z,944.32
2018-03-03T00:22:43.251Z,944.29
2018-03-03T00:23:43.189Z,944.26
2018-03-03T00:24:43.128Z,944.27
2018-03-03T00:25:43.062Z,944.32
2018-03-03T00:26:43.000Z,944.34
2018-03-03T00:27:42.939Z,944.38
2018-03-03T00:28:42.877Z,944.37
2018-03-03T00:29:42.818Z,944.38
2018-03-03T00:30:42.751Z,944.42
2018-03-03T00:31:42.686Z,944.44
2018-03-03T00:32:42.626Z,944.42
2018-03-03T00:33:42.558Z,944.45
2018-03-03T00:34:42.498Z,944.47
2018-03-03T00:35:42.446Z,944.46
2018-03-03T00:36:42.375Z,944.47
2018-03-03T00:37:42.310Z,944.48
2018-03-03T00:38:42.250Z,944.45
2018-03-03T00:39:42.185Z,944.42
2018-03-03T00:40:42.123Z,944.38
2018-03-03T00:41:42.060Z,944.44
2018-03-03T00:42:41.997Z,944.43
2018-03-03T00:43:41.937Z,944.44
2018-03-03T00:44:41.873Z,944.42
2018-03-03T00:45:41.807Z,944.41
2018-03-03T00:46:41.746Z,944.42
2018-03-03T00:47:41.686Z,944.43
2018-03-03T00:48:41.621Z,944.44
2018-03-03T00:49:41.558Z,944.42
2018-03-03T00:50:41.495Z,944.42
2018-03-03T00:51:41.434Z,944.42
2018-03-03T00:52:41.373Z,944.41
2018-03-03T00:53:41.332Z,944.41
2018-03-03T00:54:41.244Z,944.40
2018-03-03T00:55:41.192Z,944.40
2018-03-03T00:56:41.122Z,944.40
2018-03-03T00:57:41.061Z,944.40
2018-03-03T00:58:40.996Z,944.41
2018-03-03T00:59:40.984Z,944.47
2018-03-03T01:00:40.870Z,944.46
2018-03-03T01:01:40.806Z,944.44
2018-03-03T01:02:40.743Z,944.46
2018-03-03T01:03:40.680Z,944.42
2018-03-03T01:04:40.620Z,944.43
2018-03-03T01:05:40.555Z,944.49
2018-03-03T01:06:40.493Z,944.45
2018-03-03T01:07:40.430Z,944.47
2018-03-03T01:08:40.370Z,944.44
2018-03-03T01:09:40.315Z,944.45
2018-03-03T01:10:40.243Z,944.45
2018-03-03T01:11:40.179Z,944.42
2018-03-03T01:12:40.117Z,944.44
2018-03-03T01:13:40.053Z,944.40
2018-03-03T01:14:39.988Z,944.43
2018-03-03T01:15:39.931Z,944.42
2018-03-03T01:16:39.866Z,944.41
2018-03-03T01:17:39.804Z,944.46
2018-03-03T01:18:39.741Z,944.42
2018-03-03T01:19:39.680Z,944.44
2018-03-03T01:20:39.619Z,944.41
2018-03-03T01:21:39.553Z,944.38
2018-03-03T01:22:39.496Z,944.38
2018-03-03T01:23:39.426Z,944.37
2018-03-03T01:24:39.364Z,944.34
2018-03-03T01:25:39.301Z,944.35
2018-03-03T01:26:39.238Z,944.36
2018-03-03T01:27:39.177Z,944.42
2018-03-03T01:28:39.113Z,944.41
2018-03-03T01:29:39.055Z,944.43
2018-03-03T01:30:38.988Z,944.46
2018-03-03T01:31:38.924Z,944.44
2018-03-03T01:32:38.861Z,944.43
2018-03-03T01:33:38.810Z,944.43
2018-03-03T01:34:38.736Z,944.46
2018-03-03T01:35:38.676Z,944.43
2018-03-03T01:36:38.615Z,944.49
2018-03-03T01:37:38.549Z,944.51
2018-03-03T01:38:38.485Z,944.48
2018-03-03T01:39:38.423Z,944.51
2018-03-03T01:40:38.361Z,944.48
2018-03-03T01:41:38.297Z,944.49
2018-03-03T01:42:38.234Z,944.45
2018-03-03T01:43:38.176Z,944.45
2018-03-03T01:44:38.114Z,944.47
2018-03-03T01:45:38.047Z,944.46
2018-03-03T01:46:37.985Z,944.45
2018-03-03T01:47:37.920Z,944.46
2018-03-03T01:48:37.857Z,944.43
2018-03-03T01:49:37.794Z,944.46
2018-03-03T01:50:37.734Z,944.43
2018-03-03T01:51:37.669Z,944.41
2018-03-03T01:52:37.609Z,944.39
2018-03-03T01:53:37.545Z,944.37
2018-03-03T01:54:37.483Z,944.33
2018-03-03T01:55:37.427Z,944.30
2018-03-03T01:56:37.357Z,944.31
2018-03-03T01:57:37.293Z,944.26
2018-03-03T01:58:37.232Z,944.27
2018-03-03T01:59:37.167Z,944.28
2018-03-03T02:00:37.106Z,944.29
2018-03-03T02:01:37.046Z,944.24
2018-03-03T02:02:36.979Z,944.29
2018-03-03T02:03:36.916Z,944.23
2018-03-03T02:04:36.859Z,944.26
2018-03-03T02:05:36.790Z,944.20
2018-03-03T02:06:36.724Z,944.22
2018-03-03T02:07:36.669Z,944.24
2018-03-03T02:08:36.607Z,944.21
2018-03-03T02:09:36.539Z,944.22
2018-03-03T02:10:36.478Z,944.25
2018-03-03T02:11:36.436Z,944.22
2018-03-03T02:12:36.353Z,944.19
2018-03-03T02:13:36.288Z,944.16
2018-03-03T02:14:36.225Z,944.14
2018-03-03T02:15:36.164Z,944.14
2018-03-03T02:16:36.101Z,944.13
2018-03-03T02:17:36.037Z,944.13
2018-03-03T02:18:35.975Z,944.15
2018-03-03T02:19:35.912Z,944.20
2018-03-03T02:20:35.850Z,944.19
2018-03-03T02:21:35.786Z,944.18
2018-03-03T02:22:35.725Z,944.18
2018-03-03T02:23:35.661Z,944.18
2018-03-03T02:24:35.599Z,944.16
2018-03-03T02:25:35.535Z,944.21
2018-03-03T02:26:35.473Z,944.17
2018-03-03T02:27:35.410Z,944.17
2018-03-03T02:28:35.347Z,944.12
2018-03-03T02:29:35.284Z,944.11
2018-03-03T02:30:35.224Z,944.15
2018-03-03T02:31:35.155Z,944.12
2018-03-03T02:32:35.096Z,944.13
2018-03-03T02:33:35.033Z,944.12
2018-03-03T02:34:34.970Z,944.08
2018-03-03T02:35:34.907Z,944.08
2018-03-03T02:36:34.846Z,944.04
2018-03-03T02:37:34.780Z,944.05
2018-03-03T02:38:34.721Z,944.04
2018-03-03T02:39:34.661Z,944.05
2018-03-03T02:40:34.596Z,944.02
2018-03-03T02:41:34.530Z,944.03
2018-03-03T02:42:34.469Z,943.97
2018-03-03T02:43:34.406Z,943.99
2018-03-03T02:44:34.343Z,943.93
2018-03-03T02:45:34.285Z,943.99
2018-03-03T02:46:34.222Z,943.94
2018-03-03T02:47:34.153Z,943.93
2018-03-03T02:48:34.091Z,943.92
2018-03-03T02:49:34.029Z,943.93
2018-03-03T02:50:33.965Z,943.90
2018-03-03T02:51:33.904Z,943.90
2018-03-03T02:52:33.844Z,943.88
2018-03-03T02:53:33.772Z,943.90
2018-03-03T02:54:33.714Z,943.87
2018-03-03T02:55:33.652Z,943.84
2018-03-03T02:56:33.588Z,943.82
2018-03-03T02:57:33.526Z,943.82
2018-03-03T02:58:33.463Z,943.85
2018-03-03T02:59:33.399Z,943.80
2018-03-03T03:00:33.338Z,943.78
2018-03-03T03:01:33.276Z,943.79
2018-03-03T03:02:33.210Z,943.77
2018-03-03T03:03:33.149Z,943.79
2018-03-03T03:04:33.085Z,943.75
2018-03-03T03:05:33.023Z,943.74
2018-03-03T03:06:32.969Z,943.72
2018-03-03T03:07:32.903Z,943.75
2018-03-03T03:08:32.838Z,943.71
2018-03-03T03:09:32.773Z,943.67
2018-03-03T03:10:32.714Z,943.63
2018-03-03T03:11:32.646Z,943.65
2018-03-03T03:12:32.582Z,943.62
2018-03-03T03:13:32.520Z,943.57
2018-03-03T03:14:32.458Z,943.57
2018-03-03T03:15:32.393Z,943.52
2018-03-03T03:16:32.332Z,943.48
2018-03-03T03:17:32.269Z,943.46
2018-03-03T03:18:32.204Z,943.42
2018-03-03T03:19:32.141Z,943.42
2018-03-03T03:20:32.078Z,943.43
2018-03-03T03:21:32.018Z,943.34
2018-03-03T03:22:31.955Z,943.32
2018-03-03T03:23:31.891Z,943.34
2018-03-03T03:24:31.829Z,943.27
2018-03-03T03:25:31.764Z,943.27
2018-03-03T03:26:31.704Z,943.23
2018-03-03T03:27:31.639Z,943.26
2018-03-03T03:28:31.581Z,943.21
2018-03-03T03:29:31.514Z,943.27
2018-03-03T03:30:31.455Z,943.26
2018-03-03T03:31:31.385Z,943.24
2018-03-03T03:32:31.330Z,943.26
2018-03-03T03:33:31.266Z,943.26
2018-03-03T03:34:31.196Z,943.26
2018-03-03T03:35:31.139Z,943.26
2018-03-03T03:36:31.084Z,943.22
2018-03-03T03:37:31.008Z,943.21
2018-03-03T03:38:30.948Z,943.23
2018-03-03T03:39:30.898Z,943.22
2018-03-03T03:40:30.820Z,943.18
2018-03-03T03:41:30.760Z,943.18
2018-03-03T03:42:30.696Z,943.19
2018-03-03T03:43:30.635Z,943.17
2018-03-03T03:44:30.570Z,943.17
2018-03-03T03:45:30.508Z,943.20
2018-03-03T03:46:30.445Z,943.15
2018-03-03T03:47:30.383Z,943.18
2018-03-03T03:48:30.319Z,943.18
2018-03-03T03:49:30.257Z,943.22
2018-03-03T03:50:30.196Z,943.20
2018-03-03T03:51:30.130Z,943.20
2018-03-03T03:52:30.069Z,943.21
2018-03-03T03:53:30.010Z,943.19
2018-03-03T03:54:29.945Z,943.13
2018-03-03T03:55:29.885Z,943.16
2018-03-03T03:56:29.828Z,943.16
2018-03-03T03:57:29.752Z,943.10
2018-03-03T03:58:29.693Z,943.12
2018-03-03T03:59:29.623Z,943.15
2018-03-03T04:00:29.566Z,943.11
2018-03-03T04:01:29.497Z,943.13
2018-03-03T04:02:29.436Z,943.10
2018-03-03T04:03:29.375Z,943.07
2018-03-03T04:04:29.312Z,943.02
2018-03-03T04:05:29.249Z,943.00
2018-03-03T04:06:29.186Z,942.98
2018-03-03T04:07:29.123Z,943.00
2018-03-03T04:08:29.061Z,943.00
2018-03-03T04:09:28.996Z,942.93
2018-03-03T04:10:28.933Z,942.93
2018-03-03T04:11:28.871Z,942.90
2018-03-03T04:12:28.812Z,942.86
2018-03-03T04:13:28.745Z,942.90
2018-03-03T04:14:28.689Z,942.83
2018-03-03T04:15:28.615Z,942.85
2018-03-03T04:16:28.560Z,942.87
2018-03-03T04:17:28.495Z,942.84
2018-03-03T04:18:28.430Z,942.84
2018-03-03T04:19:28.367Z,942.80
2018-03-03T04:20:28.315Z,942.82
2018-03-03T04:21:28.239Z,942.78
2018-03-03T04:22:28.177Z,942.79
2018-03-03T04:23:28.114Z,942.80
2018-03-03T04:24:28.052Z,942.79
2018-03-03T04:25:27.987Z,942.79
2018-03-03T04:26:27.925Z,942.77
2018-03-03T04:27:27.866Z,942.78
2018-03-03T04:28:27.802Z,942.85
2018-03-03T04:29:27.737Z,942.81
2018-03-03T04:30:27.677Z,942.80
2018-03-03T04:31:27.612Z,942.84
2018-03-03T04:32:27.548Z,942.84
2018-03-03T04:33:27.483Z,942.81
2018-03-03T04:34:27.430Z,942.79
2018-03-03T04:35:27.363Z,942.79
2018-03-03T04:36:27.303Z,942.78
2018-03-03T04:37:27.233Z,942.77
2018-03-03T04:38:27.172Z,942.78
2018-03-03T04:39:27.112Z,942.83
2018-03-03T04:40:27.060Z,942.87
2018-03-03T04:41:26.982Z,942.84
2018-03-03T04:42:26.916Z,942.82
2018-03-03T04:43:26.855Z,942.81
2018-03-03T04:44:26.792Z,942.78
2018-03-03T04:45:26.731Z,942.76
2018-03-03T04:46:26.668Z,942.79
2018-03-03T04:47:26.601Z,942.74
2018-03-03T04:48:26.540Z,942.74
2018-03-03T04:49:26.477Z,942.73
2018-03-03T04:50:26.415Z,942.70
2018-03-03T04:51:26.349Z,942.70
2018-03-03T04:52:26.293Z,942.70
2018-03-03T04:53:26.222Z,942.66
2018-03-03T04:54:26.162Z,942.62
2018-03-03T04:55:26.100Z,942.65
2018-03-03T04:56:26.032Z,942.62
2018-03-03T04:57:25.970Z,942.60
2018-03-03T04:58:25.910Z,942.61
2018-03-03T04:59:25.842Z,942.58
2018-03-03T05:00:25.784Z,942.56
2018-03-03T05:01:25.720Z,942.59
2018-03-03T05:02:25.653Z,942.55
2018-03-03T05:03:25.594Z,942.59
2018-03-03T05:04:25.529Z,942.54
2018-03-03T05:05:25.468Z,942.54
2018-03-03T05:06:25.404Z,942.54
2018-03-03T05:07:25.342Z,942.49
2018-03-03T05:08:25.283Z,942.48
2018-03-03T05:09:25.219Z,942.45
2018-03-03T05:10:25.153Z,942.44
2018-03-03T05:11:25.088Z,942.42
2018-03-03T05:12:25.024Z,942.45
2018-03-03T05:13:24.966Z,942.45
2018-03-03T05:14:24.903Z,942.46
2018-03-03T05:15:24.832Z,942.47
2018-03-03T05:16:24.773Z,942.47
2018-03-03T05:17:24.713Z,942.47
2018-03-03T05:18:24.641Z,942.47
2018-03-03T05:19:24.585Z,942.44
2018-03-03T05:20:24.525Z,942.44
2018-03-03T05:21:24.455Z,942.42
2018-03-03T05:22:24.401Z,942.40
2018-03-03T05:23:24.333Z,942.38
2018-03-03T05:24:24.267Z,942.34
2018-03-03T05:25:24.204Z,942.35
2018-03-03T05:26:24.140Z,942.35
2018-03-03T05:27:24.078Z,942.35
2018-03-03T05:28:24.022Z,942.33
2018-03-03T05:29:23.952Z,942.34
2018-03-03T05:30:23.889Z,942.31
2018-03-03T05:31:23.828Z,942.29
2018-03-03T05:32:23.764Z,942.25
2018-03-03T05:33:23.699Z,942.22
2018-03-03T05:34:23.644Z,942.19
2018-03-03T05:35:23.578Z,942.17
2018-03-03T05:36:23.509Z,942.18
2018-03-03T05:37:23.442Z,942.12
2018-03-03T05:38:23.385Z,942.10
2018-03-03T05:39:23.330Z,942.11
2018-03-03T05:40:23.254Z,942.05
2018-03-03T05:41:23.197Z,942.09
2018-03-03T05:42:23.139Z,942.13
2018-03-03T05:43:23.067Z,942.07
2018-03-03T05:44:23.012Z,942.10
2018-03-03T05:45:22.941Z,942.11
2018-03-03T05:46:22.879Z,942.13
2018-03-03T05:47:22.816Z,942.12
2018-03-03T05:48:22.755Z,942.14
2018-03-03T05:49:22.690Z,942.13
2018-03-03T05:50:22.644Z,942.11
2018-03-03T05:51:22.565Z,942.05
2018-03-03T05:52:22.500Z,942.04
2018-03-03T05:53:22.442Z,942.06
2018-03-03T05:54:22.385Z,942.02
2018-03-03T05:55:22.310Z,942.03
2018-03-03T05:56:22.257Z,942.02
2018-03-03T05:57:22.196Z,942.03
2018-03-03T05:58:22.137Z,942.01
2018-03-03T05:59:22.057Z,942.05
2018-03-03T06:00:21.996Z,942.03
2018-03-03T06:01:21.944Z,942.07
2018-03-03T06:02:21.867Z,942.07
2018-03-03T06:03:21.806Z,942.03
2018-03-03T06:04:21.743Z,942.03
2018-03-03T06:05:21.681Z,942.04
2018-03-03T06:06:21.616Z,942.03
2018-03-03T06:07:21.554Z,942.06
2018-03-03T06:08:21.490Z,942.04
2018-03-03T06:09:21.427Z,942.00
2018-03-03T06:10:21.369Z,942.01
2018-03-03T06:11:21.302Z,941.99
2018-03-03T06:12:21.241Z,941.96
2018-03-03T06:13:21.178Z,941.96
2018-03-03T06:14:21.117Z,942.00
2018-03-03T06:15:21.049Z,941.92
2018-03-03T06:16:20.992Z,941.98
2018-03-03T06:17:20.924Z,942.00
2018-03-03T06:18:20.856Z,941.99
2018-03-03T06:19:20.796Z,941.98
2018-03-03T06:20:20.739Z,942.03
2018-03-03T06:21:20.666Z,942.09
2018-03-03T06:22:20.630Z,942.11
2018-03-03T06:23:20.544Z,942.14
2018-03-03T06:24:20.480Z,942.13
2018-03-03T06:25:20.415Z,942.20
2018-03-03T06:26:20.361Z,942.22
2018-03-03T06:27:20.294Z,942.18
2018-03-03T06:28:20.229Z,942.20
2018-03-03T06:29:20.164Z,942.23
2018-03-03T06:30:20.100Z,942.27
2018-03-03T06:31:20.042Z,942.30
2018-03-03T06:32:19.975Z,942.25
2018-03-03T06:33:19.917Z,942.33
2018-03-03T06:34:19.850Z,942.28
2018-03-03T06:35:19.791Z,942.26
2018-03-03T06:36:19.723Z,942.28
2018-03-03T06:37:19.658Z,942.33
2018-03-03T06:38:19.595Z,942.31
2018-03-03T06:39:19.533Z,942.33
2018-03-03T06:40:19.477Z,942.31
2018-03-03T06:41:19.407Z,942.26
2018-03-03T06:42:19.343Z,942.20
2018-03-03T06:43:19.280Z,942.24
2018-03-03T06:44:19.217Z,942.29
2018-03-03T06:45:19.155Z,942.28
2018-03-03T06:46:19.089Z,942.33
2018-03-03T06:47:19.026Z,942.34
2018-03-03T06:48:18.967Z,942.35
2018-03-03T06:49:18.902Z,942.32
2018-03-03T06:50:18.841Z,942.36
2018-03-03T06:51:18.776Z,942.31
2018-03-03T06:52:18.712Z,942.30
2018-03-03T06:53:18.648Z,942.31
2018-03-03T06:54:18.585Z,942.33
2018-03-03T06:55:18.522Z,942.31
2018-03-03T06:56:18.461Z,942.26
2018-03-03T06:57:18.402Z,942.24
2018-03-03T06:58:18.334Z,942.22
2018-03-03T06:59:18.270Z,942.23
2018-03-03T07:00:18.206Z,942.24
2018-03-03T07:01:18.153Z,942.18
2018-03-03T07:02:18.080Z,942.22
2018-03-03T07:03:18.018Z,942.21
2018-03-03T07:04:17.956Z,942.22
2018-03-03T07:05:17.893Z,942.22
2018-03-03T07:06:17.831Z,942.23
2018-03-03T07:07:17.766Z,942.19
2018-03-03T07:08:17.702Z,942.19
2018-03-03T07:09:17.639Z,942.14
2018-03-03T07:10:17.576Z,942.14
2018-03-03T07:11:17.517Z,942.09
2018-03-03T07:12:17.452Z,942.08
2018-03-03T07:13:17.387Z,942.10
2018-03-03T07:14:17.325Z,942.10
2018-03-03T07:15:17.262Z,942.09
2018-03-03T07:16:17.197Z,942.07
2018-03-03T07:17:17.134Z,942.08
2018-03-03T07:18:17.071Z,942.08
2018-03-03T07:19:17.008Z,942.01
2018-03-03T07:20:16.947Z,941.99
2018-03-03T07:21:16.882Z,942.03
2018-03-03T07:22:16.818Z,942.02
2018-03-03T07:23:16.756Z,942.04
2018-03-03T07:24:16.695Z,942.04
2018-03-03T07:25:16.630Z,942.02
2018-03-03T07:26:16.567Z,942.04
2018-03-03T07:27:16.503Z,942.03
2018-03-03T07:28:16.444Z,942.04
2018-03-03T07:29:16.380Z,942.05
2018-03-03T07:30:16.318Z,942.08
2018-03-03T07:31:16.256Z,942.04
2018-03-03T07:32:16.189Z,942.02
2018-03-03T07:33:16.130Z,942.01
2018-03-03T07:34:16.061Z,942.02
2018-03-03T07:35:16.000Z,942.02
2018-03-03T07:36:15.939Z,942.03
2018-03-03T07:37:15.876Z,942.05
2018-03-03T07:38:15.810Z,942.03
2018-03-03T07:39:15.748Z,941.99
2018-03-03T07:40:15.684Z,941.99
2018-03-03T07:41:15.620Z,941.98
2018-03-03T07:42:15.560Z,941.94
2018-03-03T07:43:15.496Z,941.92
2018-03-03T07:44:15.433Z,941.95
2018-03-03T07:45:15.368Z,941.94
2018-03-03T07:46:15.306Z,941.98
2018-03-03T07:47:15.242Z,942.00
2018-03-03T07:48:15.184Z,942.04
2018-03-03T07:49:15.119Z,942.04
2018-03-03T07:50:15.054Z,942.03
2018-03-03T07:51:14.992Z,942.04
2018-03-03T07:52:14.928Z,942.03
2018-03-03T07:53:14.865Z,942.04
2018-03-03T07:54:14.802Z,942.02
2018-03-03T07:55:14.751Z,942.02
2018-03-03T07:56:14.676Z,942.07
2018-03-03T07:57:14.614Z,942.03
2018-03-03T07:58:14.554Z,942.00
2018-03-03T07:59:14.487Z,942.01
2018-03-03T08:00:14.426Z,941.99
2018-03-03T08:01:14.362Z,942.00
2018-03-03T08:02:14.299Z,942.00
2018-03-03T08:03:14.236Z,942.00
2018-03-03T08:04:14.177Z,941.98
2018-03-03T08:05:14.109Z,942.03
2018-03-03T08:06:14.050Z,942.03
2018-03-03T08:07:13.985Z,941.99
2018-03-03T08:08:13.922Z,942.01
2018-03-03T08:09:13.858Z,942.00
2018-03-03T08:10:13.796Z,942.01
2018-03-03T08:11:13.736Z,942.01
2018-03-03T08:12:13.671Z,942.01
2018-03-03T08:13:13.607Z,941.96
2018-03-03T08:14:13.544Z,941.94
2018-03-03T08:15:13.483Z,941.91
2018-03-03T08:16:13.419Z,941.94
2018-03-03T08:17:13.357Z,941.94
2018-03-03T08:18:13.293Z,941.95
2018-03-03T08:19:13.240Z,941.94
2018-03-03T08:20:13.168Z,941.96
2018-03-03T08:21:13.106Z,941.96
2018-03-03T08:22:13.041Z,941.98
2018-03-03T08:23:12.979Z,942.00
2018-03-03T08:24:12.913Z,941.94
2018-03-03T08:25:12.857Z,941.92
2018-03-03T08:26:12.798Z,941.91
2018-03-03T08:27:12.727Z,941.89
2018-03-03T08:28:12.671Z,941.89
2018-03-03T08:29:12.603Z,941.80
2018-03-03T08:30:12.541Z,941.83
2018-03-03T08:31:12.477Z,941.78
2018-03-03T08:32:12.415Z,941.78
2018-03-03T08:33:12.352Z,941.76
2018-03-03T08:34:12.288Z,941.74
2018-03-03T08:35:12.227Z,941.74
2018-03-03T08:36:12.165Z,941.69
2018-03-03T08:37:12.101Z,941.69
2018-03-03T08:38:12.040Z,941.70
2018-03-03T08:39:11.975Z,941.71
2018-03-03T08:40:11.921Z,941.74
2018-03-03T08:41:11.852Z,941.80
2018-03-03T08:42:11.788Z,941.77
2018-03-03T08:43:11.732Z,941.79
2018-03-03T08:44:11.670Z,941.76
2018-03-03T08:45:11.607Z,941.76
2018-03-03T08:46:11.533Z,941.71
2018-03-03T08:47:11.477Z,941.71
2018-03-03T08:48:11.424Z,941.64
2018-03-03T08:49:11.347Z,941.61
2018-03-03T08:50:11.290Z,941.66
2018-03-03T08:51:11.231Z,941.68
2018-03-03T08:52:11.164Z,941.69
2018-03-03T08:53:11.100Z,941.71
2018-03-03T08:54:11.054Z,941.80
2018-03-03T08:55:10.972Z,941.81
2018-03-03T08:56:10.911Z,941.89
2018-03-03T08:57:10.881Z,941.91
2018-03-03T08:58:10.815Z,942.00
2018-03-03T08:59:10.725Z,941.97
2018-03-03T09:00:10.661Z,941.97
2018-03-03T09:01:10.601Z,941.97
2018-03-03T09:02:10.539Z,941.97
2018-03-03T09:03:10.476Z,941.95
2018-03-03T09:04:10.411Z,942.00
2018-03-03T09:05:10.350Z,941.96
2018-03-03T09:06:10.283Z,942.00
2018-03-03T09:07:10.224Z,942.03
2018-03-03T09:08:10.162Z,942.00
2018-03-03T09:09:10.097Z,941.98
2018-03-03T09:10:10.083Z,941.98
2018-03-03T09:11:09.982Z,941.95
2018-03-03T09:12:09.912Z,941.94
2018-03-03T09:13:09.847Z,941.93
2018-03-03T09:14:09.780Z,941.88
2018-03-03T09:15:09.732Z,941.85
2018-03-03T09:16:09.664Z,941.82
2018-03-03T09:17:09.593Z,941.81
2018-03-03T09:18:09.536Z,941.79
2018-03-03T09:19:09.473Z,941.78
2018-03-03T09:20:09.409Z,941.76
2018-03-03T09:21:09.348Z,941.74
2018-03-03T09:22:09.294Z,941.71
2018-03-03T09:23:09.221Z,941.67
2018-03-03T09:24:09.164Z,941.67
2018-03-03T09:25:09.100Z,941.70
2018-03-03T09:26:09.034Z,941.63
2018-03-03T09:27:08.973Z,941.65
2018-03-03T09:28:08.912Z,941.67
2018-03-03T09:29:08.848Z,941.70
2018-03-03T09:30:08.788Z,941.70
2018-03-03T09:31:08.723Z,941.69
2018-03-03T09:32:08.661Z,941.72
2018-03-03T09:33:08.599Z,941.69
2018-03-03T09:34:08.536Z,941.74
2018-03-03T09:35:08.477Z,941.73
2018-03-03T09:36:08.413Z,941.75
2018-03-03T09:37:08.350Z,941.74
2018-03-03T09:38:08.290Z,941.74
2018-03-03T09:39:08.230Z,941.68
2018-03-03T09:40:08.165Z,941.68
2018-03-03T09:41:08.105Z,941.66
2018-03-03T09:42:08.046Z,941.63
2018-03-03T09:43:07.990Z,941.68
2018-03-03T09:44:07.922Z,941.62
2018-03-03T09:45:07.862Z,941.63
2018-03-03T09:46:07.810Z,941.65
2018-03-03T09:47:07.732Z,941.65
2018-03-03T09:48:07.678Z,941.67
2018-03-03T09:49:07.608Z,941.63
2018-03-03T09:50:07.547Z,941.68
2018-03-03T09:51:07.488Z,941.66
2018-03-03T09:52:07.426Z,941.64
2018-03-03T09:53:07.366Z,941.63
2018-03-03T09:54:07.297Z,941.65
2018-03-03T09:55:07.243Z,941.69
2018-03-03T09:56:07.179Z,941.73
2018-03-03T09:57:07.115Z,941.75
2018-03-03T09:58:07.055Z,941.74
2018-03-03T09:59:06.994Z,941.78
2018-03-03T10:00:06.939Z,941.74
2018-03-03T10:01:06.875Z,941.72
2018-03-03T10:02:06.912Z,941.73
2018-03-03T10:03:06.748Z,941.72
2018-03-03T10:04:06.690Z,941.79
2018-03-03T10:05:06.625Z,941.77
2018-03-03T10:06:06.564Z,941.76
2018-03-03T10:07:06.502Z,941.75
2018-03-03T10:08:06.451Z,941.75
2018-03-03T10:09:06.389Z,941.78
2018-03-03T10:10:06.320Z,941.75
2018-03-03T10:11:06.261Z,941.74
2018-03-03T10:12:06.206Z,941.71
2018-03-03T10:13:06.138Z,941.66
2018-03-03T10:14:06.088Z,941.66
2018-03-03T10:15:06.038Z,941.61
2018-03-03T10:16:05.961Z,941.63
2018-03-03T10:17:05.900Z,941.67
2018-03-03T10:18:05.838Z,941.65
2018-03-03T10:19:05.784Z,941.66
2018-03-03T10:20:05.721Z,941.69
2018-03-03T10:21:05.658Z,941.66
2018-03-03T10:22:05.598Z,941.67
2018-03-03T10:23:05.538Z,941.62
2018-03-03T10:24:05.481Z,941.54
2018-03-03T10:25:05.421Z,941.50
2018-03-03T10:26:05.358Z,941.48
2018-03-03T10:27:05.305Z,941.46
2018-03-03T10:28:05.249Z,941.41
2018-03-03T10:29:05.177Z,941.39
2018-03-03T10:30:05.124Z,941.41
2018-03-03T10:31:05.066Z,941.41
2018-03-03T10:32:05.010Z,941.44
2018-03-03T10:33:04.953Z,941.44
2018-03-03T10:34:04.885Z,941.46
2018-03-03T10:35:04.827Z,941.48
2018-03-03T10:36:04.768Z,941.46
2018-03-03T10:37:04.712Z,941.38
2018-03-03T10:38:04.649Z,941.44
2018-03-03T10:39:04.590Z,941.48
2018-03-03T10:40:04.531Z,941.46
2018-03-03T10:41:04.471Z,941.47
2018-03-03T10:42:04.411Z,941.51
2018-03-03T10:43:04.353Z,941.48
2018-03-03T10:44:04.293Z,941.40
2018-03-03T10:45:04.237Z,941.35
2018-03-03T10:46:04.171Z,941.32
2018-03-03T10:47:04.122Z,941.33
2018-03-03T10:48:04.058Z,941.39
2018-03-03T10:49:04.002Z,941.43
2018-03-03T10:50:03.940Z,941.42
2018-03-03T10:51:03.882Z,941.39
2018-03-03T10:52:03.819Z,941.35
2018-03-03T10:53:03.761Z,941.35
2018-03-03T10:54:03.701Z,941.36
2018-03-03T10:55:03.642Z,941.37
2018-03-03T10:56:03.582Z,941.37
2018-03-03T10:57:03.520Z,941.38
2018-03-03T10:58:03.466Z,941.35
2018-03-03T10:59:03.406Z,941.34
2018-03-03T11:00:03.345Z,941.35
2018-03-03T11:01:03.295Z,941.33
2018-03-03T11:02:03.226Z,941.34
2018-03-03T11:03:03.168Z,941.31
2018-03-03T11:04:03.134Z,941.26
2018-03-03T11:05:03.048Z,941.27
2018-03-03T11:06:02.993Z,941.26
2018-03-03T11:07:02.929Z,941.25
2018-03-03T11:08:02.870Z,941.18
2018-03-03T11:09:02.810Z,941.15
2018-03-03T11:10:02.751Z,941.11
2018-03-03T11:11:02.693Z,941.12
2018-03-03T11:12:02.630Z,941.11
2018-03-03T11:13:02.575Z,941.18
2018-03-03T11:14:02.514Z,941.12
2018-03-03T11:15:02.453Z,941.15
2018-03-03T11:16:02.392Z,941.12
2018-03-03T11:17:02.351Z,941.11
2018-03-03T11:18:02.272Z,941.12
2018-03-03T11:19:02.220Z,941.09
2018-03-03T11:20:02.148Z,941.08
2018-03-03T11:21:02.097Z,941.12
2018-03-03T11:22:02.034Z,941.10
2018-03-03T11:23:01.974Z,941.11
2018-03-03T11:24:01.913Z,941.11
2018-03-03T11:25:01.855Z,941.12
2018-03-03T11:26:01.802Z,941.08
2018-03-03T11:27:01.731Z,941.12
2018-03-03T11:28:01.682Z,941.12
2018-03-03T11:29:01.615Z,941.10
2018-03-03T11:30:01.552Z,941.09
2018-03-03T11:31:01.493Z,941.08
2018-03-03T11:32:01.433Z,941.13
2018-03-03T11:33:01.372Z,941.10
2018-03-03T11:34:01.315Z,941.09
2018-03-03T11:35:01.253Z,941.04
2018-03-03T11:36:01.192Z,941.05
2018-03-03T11:37:01.132Z,941.05
2018-03-03T11:38:01.071Z,941.05
2018-03-03T11:39:01.010Z,941.04
2018-03-03T11:40:00.950Z,941.08
2018-03-03T11:41:00.890Z,941.11
2018-03-03T11:42:00.845Z,941.12
2018-03-03T11:43:00.768Z,941.07
2018-03-03T11:44:00.710Z,941.04
2018-03-03T11:45:00.655Z,941.06
2018-03-03T11:46:00.585Z,941.06
2018-03-03T11:47:00.530Z,941.09
2018-03-03T11:48:00.468Z,941.07
2018-03-03T11:49:00.408Z,941.08
2018-03-03T11:50:00.364Z,941.02
2018-03-03T11:51:00.285Z,940.97
2018-03-03T11:52:00.223Z,940.96
2018-03-03T11:53:00.213Z,940.94
2018-03-03T11:54:00.108Z,940.96
2018-03-03T11:55:00.051Z,941.00
2018-03-03T11:55:59.982Z,941.00
2018-03-03T11:56:59.923Z,941.00
2018-03-03T11:57:59.866Z,941.02
2018-03-03T11:58:59.805Z,941.03
2018-03-03T11:59:59.745Z,941.02
2018-03-03T12:00:59.685Z,941.02
2018-03-03T12:01:59.624Z,941.00
2018-03-03T12:02:59.566Z,941.04
2018-03-03T12:03:59.502Z,941.02
2018-03-03T12:04:59.439Z,941.01
2018-03-03T12:05:59.381Z,941.00
2018-03-03T12:06:59.322Z,941.02
2018-03-03T12:07:59.260Z,941.03
2018-03-03T12:08:59.198Z,941.00
2018-03-03T12:09:59.140Z,941.00
2018-03-03T12:10:59.079Z,941.01
2018-03-03T12:11:59.018Z,940.98
2018-03-03T12:12:58.958Z,940.98
2018-03-03T12:13:58.897Z,940.92
2018-03-03T12:14:58.837Z,940.96
2018-03-03T12:15:58.781Z,940.97
2018-03-03T12:16:58.714Z,940.96
2018-03-03T12:17:58.656Z,940.98
2018-03-03T12:18:58.593Z,941.01
2018-03-03T12:19:58.537Z,940.99
2018-03-03T12:20:58.472Z,940.97
2018-03-03T12:21:58.413Z,940.93
2018-03-03T12:22:58.363Z,940.97
2018-03-03T12:23:58.288Z,940.93
2018-03-03T12:24:58.229Z,940.97
2018-03-03T12:25:58.173Z,940.99
2018-03-03T12:26:58.104Z,940.94
2018-03-03T12:27:58.048Z,940.91